Time;durP1;ratioP1;P1;durP2;ratioP2;P2;SDS_P1;SDS_P2;PMS_P1;PMS_P2;Temp;Humidity;BMP_temperature;BMP_pressure;BME280_temperature;BME280_humidity;BME280_pressure;Samples;Min_cycle;Max_cycle;Signal;HPM_P1;HPM_P2
2022/07/15 00:01:08;;;;;;;;;;;;;;;14.28;85.67;91072.13;5011947;28;19917;-71
2022/07/15 00:03:33;;;;;;;;;;;;;;;14.32;85.52;91072.25;5012046;28;20372;-71
2022/07/15 00:05:58;;;;;;;;;;;;;;;14.35;85.03;91075.06;5011322;28;19917;-71
2022/07/15 00:08:24;;;;;;;;;;;;;;;14.33;85.37;91068.47;5011314;28;19913;-71
2022/07/15 00:10:49;;;;;;;;;;;;;;;14.37;84.11;91075.53;5011044;28;19917;-70
2022/07/15 00:13:14;;;;;;;;;;;;;;;14.47;82.80;91070.91;5010863;28;19968;-71
2022/07/15 00:15:40;;;;;;;;;;;;;;;14.46;82.56;91074.69;5011047;28;19968;-71
2022/07/15 00:18:05;;;;;;;;;;;;;;;14.46;82.83;91074.69;5011116;28;19918;-71
2022/07/15 00:20:34;;;;;;;;;;;;;;;14.43;83.21;91070.75;5011120;28;19972;-71
2022/07/15 00:23:00;;;;;;;;;;;;;;;14.37;84.07;91064.03;5009904;28;19920;-70
2022/07/15 00:25:25;;;;;;;;;;;;;;;14.32;84.61;91072.25;5011084;28;20019;-70
2022/07/15 00:27:52;;;;;;;;;;;;;;;14.32;83.89;91069.56;5011201;28;19960;-71
2022/07/15 00:30:17;;;;;;;;;;;;;;;14.34;83.15;91073.47;5011049;28;19917;-70
2022/07/15 00:32:43;;;;;;;;;;;;;;;14.42;82.69;91071.09;5010907;28;19913;-71
2022/07/15 00:35:08;;;;;;;;;;;;;;;14.37;82.80;91072.06;5010989;28;20315;-70
2022/07/15 00:37:34;;;;;;;;;;;;;;;14.37;83.31;91072.06;5010881;28;19914;-71
2022/07/15 00:40:00;;;;;;;;;;;;;;;14.32;84.06;91069.56;5010812;28;19914;-70
2022/07/15 00:42:44;;;;;;;;;;;;;;;14.24;84.88;91070.44;5010915;28;19921;-70
2022/07/15 00:45:14;;;;;;;;;;;;;;;14.12;86.45;91068.47;5010802;28;19913;-70
2022/07/15 00:47:40;;;;;;;;;;;;;;;14.07;87.54;91074.81;5010775;28;19914;-70
2022/07/15 00:50:05;;;;;;;;;;;;;;;13.98;89.46;91073.28;5010681;28;19913;-70
2022/07/15 00:52:32;;;;;;;;;;;;;;;13.86;91.42;91067.88;5010579;28;19913;-70
2022/07/15 00:54:58;;;;;;;;;;;;;;;13.78;92.74;91069.50;4993114;28;19917;-70
2022/07/15 00:57:25;;;;;;;;;;;;;;;13.74;94.05;91071.25;5010716;28;19913;-70
2022/07/15 00:59:51;;;;;;;;;;;;;;;13.73;94.56;91059.00;5010585;28;20371;-70
2022/07/15 01:02:17;;;;;;;;;;;;;;;13.72;94.85;91063.53;5010556;28;19913;-70
2022/07/15 01:04:43;;;;;;;;;;;;;;;13.60;96.34;91054.66;4967257;28;1160374;-70
2022/07/15 01:07:08;;;;;;;;;;;;;;;13.60;96.72;91060.78;4992633;28;19928;-70
2022/07/15 01:09:33;;;;;;;;;;;;;;;13.53;97.82;91057.84;4993219;28;20421;-70
2022/07/15 01:11:58;;;;;;;;;;;;;;;13.61;96.46;91058.91;4992680;28;20402;-71
2022/07/15 01:14:24;;;;;;;;;;;;;;;13.64;95.58;91060.94;4993011;28;19918;-71
2022/07/15 01:16:49;;;;;;;;;;;;;;;13.59;95.70;91063.78;4992449;28;19940;-70
2022/07/15 01:19:15;;;;;;;;;;;;;;;13.52;96.97;91064.28;4993073;28;19917;-70
2022/07/15 01:21:40;;;;;;;;;;;;;;;13.47;97.93;91057.25;4992764;28;20410;-70
2022/07/15 01:24:06;;;;;;;;;;;;;;;13.40;99.15;91064.97;4992486;28;20427;-70
2022/07/15 01:26:31;;;;;;;;;;;;;;;13.38;100.00;91064.50;4992884;28;20379;-70
2022/07/15 01:28:56;;;;;;;;;;;;;;;13.31;100.00;91074.91;4993016;28;19917;-70
2022/07/15 01:31:22;;;;;;;;;;;;;;;13.21;100.00;91058.47;4992695;28;20407;-70
2022/07/15 01:33:47;;;;;;;;;;;;;;;13.12;100.00;91061.94;4994171;28;19917;-70
2022/07/15 01:36:13;;;;;;;;;;;;;;;13.04;100.00;91062.72;4996401;28;19917;-70
2022/07/15 01:38:38;;;;;;;;;;;;;;;12.92;100.00;91061.81;4996014;28;19918;-70
2022/07/15 01:41:03;;;;;;;;;;;;;;;12.88;100.00;91062.47;4996275;28;19918;-70
2022/07/15 01:43:28;;;;;;;;;;;;;;;12.87;100.00;91057.44;4995654;28;19918;-71
2022/07/15 01:45:54;;;;;;;;;;;;;;;12.89;100.00;91055.25;4978194;28;19918;-70
2022/07/15 01:51:04;;;;;;;;;;;;;;;12.92;100.00;91053.81;4996403;28;19940;-70
2022/07/15 01:53:30;;;;;;;;;;;;;;;13.01;100.00;91051.91;4995530;28;20396;-70
2022/07/15 01:55:55;;;;;;;;;;;;;;;13.10;100.00;91055.34;4977955;28;19917;-70
2022/07/15 01:58:21;;;;;;;;;;;;;;;13.14;100.00;91058.94;4995826;28;19953;-70
2022/07/15 02:00:47;;;;;;;;;;;;;;;13.21;100.00;91051.22;4995277;28;19953;-70
2022/07/15 02:03:12;;;;;;;;;;;;;;;13.24;100.00;91053.25;4995371;28;19960;-70
2022/07/15 02:05:37;;;;;;;;;;;;;;;13.27;100.00;91044.63;5016468;28;19920;-70
2022/07/15 02:08:03;;;;;;;;;;;;;;;13.34;98.89;91052.13;5034611;28;20040;-69
2022/07/15 02:10:40;;;;;;;;;;;;;;;13.44;96.60;91049.88;5016802;28;19928;-69
2022/07/15 02:13:09;;;;;;;;;;;;;;;13.49;95.02;91049.69;5034421;28;19917;-70
2022/07/15 02:15:35;;;;;;;;;;;;;;;13.47;95.46;91048.44;5034511;28;20008;-70
2022/07/15 02:18:01;;;;;;;;;;;;;;;13.42;96.42;91043.28;5034409;28;20369;-69
2022/07/15 02:20:27;;;;;;;;;;;;;;;13.33;97.73;91046.00;5034419;28;20365;-69
2022/07/15 02:22:53;;;;;;;;;;;;;;;13.26;98.47;91043.06;5154764;23;19921;-68
2022/07/15 02:25:18;;;;;;;;;;;;;;;13.28;98.03;91043.50;5034347;28;20459;-68
2022/07/15 02:27:43;;;;;;;;;;;;;;;13.37;95.94;91044.22;5034868;28;19917;-68
2022/07/15 02:30:09;;;;;;;;;;;;;;;13.45;95.29;91042.63;5034503;28;20370;-68
2022/07/15 02:32:34;;;;;;;;;;;;;;;13.44;95.31;91047.19;5034090;28;19917;-68
2022/07/15 02:34:59;;;;;;;;;;;;;;;13.37;96.02;91040.78;5034247;28;20015;-68
2022/07/15 02:37:24;;;;;;;;;;;;;;;13.32;96.36;91043.66;5034701;28;19966;-67
2022/07/15 02:39:50;;;;;;;;;;;;;;;13.35;95.51;91043.78;5034085;28;19913;-67
2022/07/15 02:42:15;;;;;;;;;;;;;;;13.42;94.80;91043.28;5033826;28;19974;-68
2022/07/15 02:44:40;;;;;;;;;;;;;;;13.37;94.84;91046.91;5033150;28;19936;-68
2022/07/15 02:47:06;;;;;;;;;;;;;;;13.34;95.56;91042.22;5033796;28;19913;-66
2022/07/15 02:49:32;;;;;;;;;;;;;;;13.40;95.04;91040.13;5034049;28;19935;-66
2022/07/15 02:51:57;;;;;;;;;;;;;;;13.41;94.44;91041.69;5034035;28;19913;-66
2022/07/15 02:54:22;;;;;;;;;;;;;;;13.41;94.34;91037.16;5034106;28;19913;-65
2022/07/15 02:56:47;;;;;;;;;;;;;;;13.39;94.69;91041.22;5034341;28;20386;-66
2022/07/15 02:59:13;;;;;;;;;;;;;;;13.34;95.07;91041.44;5034005;28;19913;-66
2022/07/15 03:01:38;;;;;;;;;;;;;;;13.26;96.03;91039.59;5033474;28;20363;-69
2022/07/15 03:04:04;;;;;;;;;;;;;;;13.23;95.88;91035.66;5033772;28;19959;-67
2022/07/15 03:06:29;;;;;;;;;;;;;;;13.25;96.00;91041.47;5034140;28;19913;-68
2022/07/15 03:08:55;;;;;;;;;;;;;;;13.22;96.18;91035.97;5033750;28;19913;-68
2022/07/15 03:11:20;;;;;;;;;;;;;;;13.24;95.66;91031.88;5033534;28;20470;-68
2022/07/15 03:13:45;;;;;;;;;;;;;;;13.28;95.08;91029.38;5033271;28;19913;-68
2022/07/15 03:16:10;;;;;;;;;;;;;;;13.26;94.70;91039.59;5033681;28;19966;-69
2022/07/15 03:18:36;;;;;;;;;;;;;;;13.34;93.82;91036.88;5033387;28;19913;-68
2022/07/15 03:21:02;;;;;;;;;;;;;;;13.43;92.15;91042.97;5033324;28;19916;-68
2022/07/15 03:23:27;;;;;;;;;;;;;;;13.48;91.32;91037.44;5033173;28;20011;-68
2022/07/15 03:25:53;;;;;;;;;;;;;;;13.56;90.67;91037.69;5033484;28;19975;-68
2022/07/15 03:28:19;;;;;;;;;;;;;;;13.59;90.13;91034.38;5033134;28;19920;-66
2022/07/15 03:30:44;;;;;;;;;;;;;;;13.59;90.28;91037.84;5032895;28;20362;-66
2022/07/15 03:33:09;;;;;;;;;;;;;;;13.57;90.31;91029.38;5033392;28;19919;-68
2022/07/15 03:35:35;;;;;;;;;;;;;;;13.59;90.36;91031.72;5033243;28;19920;-66
2022/07/15 03:38:00;;;;;;;;;;;;;;;13.56;90.95;91035.78;5033258;28;19955;-65
2022/07/15 03:40:25;;;;;;;;;;;;;;;13.47;91.86;91033.19;5033281;28;19920;-65
2022/07/15 03:42:50;;;;;;;;;;;;;;;13.44;92.59;91039.19;5033115;28;19918;-65
2022/07/15 03:45:16;;;;;;;;;;;;;;;13.54;90.79;91030.00;5033074;28;20019;-66
2022/07/15 03:47:41;;;;;;;;;;;;;;;13.68;88.97;91027.09;5032977;28;19920;-66
2022/07/15 03:50:06;;;;;;;;;;;;;;;13.72;88.38;91018.09;5015532;28;19948;-67
2022/07/15 03:52:32;;;;;;;;;;;;;;;13.78;87.49;91013.34;5032779;28;20374;-67
2022/07/15 03:54:57;;;;;;;;;;;;;;;13.78;86.95;91016.81;5032816;28;19935;-67
2022/07/15 03:57:24;;;;;;;;;;;;;;;13.87;86.50;91024.75;5032727;28;19913;-67
2022/07/15 03:59:50;;;;;;;;;;;;;;;13.82;87.26;91013.47;5032897;28;20007;-67
2022/07/15 04:02:15;;;;;;;;;;;;;;;13.78;88.39;91018.69;5032752;28;19916;-67
2022/07/15 04:04:40;;;;;;;;;;;;;;;13.82;88.76;91019.59;5032552;28;19913;-67
2022/07/15 04:07:05;;;;;;;;;;;;;;;13.93;87.72;91015.44;5032855;28;20015;-67
2022/07/15 04:09:31;;;;;;;;;;;;;;;13.95;88.11;91026.59;5033134;28;19913;-67
2022/07/15 04:11:56;;;;;;;;;;;;;;;13.91;88.23;91017.66;5032571;28;20370;-67
2022/07/15 04:14:22;;;;;;;;;;;;;;;13.90;89.67;91021.44;5032741;28;19913;-67
2022/07/15 04:16:47;;;;;;;;;;;;;;;13.90;90.96;91015.31;5032727;28;19913;-67
2022/07/15 04:19:12;;;;;;;;;;;;;;;13.91;91.59;91017.66;5032063;28;19917;-68
2022/07/15 04:21:38;;;;;;;;;;;;;;;13.93;92.42;91020.00;5032279;28;19963;-68
2022/07/15 04:24:03;;;;;;;;;;;;;;;14.04;92.22;91023.84;5032184;28;19917;-68
2022/07/15 04:26:29;;;;;;;;;;;;;;;14.09;92.87;91024.44;5032659;28;19920;-68
2022/07/15 04:28:54;;;;;;;;;;;;;;;14.13;94.40;91029.13;5014559;28;19917;-68
2022/07/15 04:31:20;;;;;;;;;;;;;;;14.20;95.77;91027.50;5032278;28;19967;-68
2022/07/15 04:33:45;;;;;;;;;;;;;;;14.29;96.96;91028.19;5031990;28;19913;-69
2022/07/15 04:36:10;;;;;;;;;;;;;;;14.42;99.96;91023.69;5032487;28;20366;-67
2022/07/15 04:38:36;;;;;;;;;;;;;;;14.51;100.00;91032.44;5032511;28;19913;-68
2022/07/15 04:41:01;;;;;;;;;;;;;;;14.52;100.00;91036.69;5032510;28;19920;-68
2022/07/15 04:43:26;;;;;;;;;;;;;;;14.56;100.00;91031.47;5032122;28;19913;-69
2022/07/15 04:45:52;;;;;;;;;;;;;;;14.61;100.00;91029.34;5032405;28;20378;-69
2022/07/15 04:51:01;;;;;;;;;;;;;;;14.90;98.65;91033.00;5017817;28;19920;-67
2022/07/15 04:53:26;;;;;;;;;;;;;;;14.95;97.92;91038.91;5014245;28;19913;-69
2022/07/15 04:55:51;;;;;;;;;;;;;;;15.02;98.64;91033.03;5032287;28;20405;-68
2022/07/15 04:58:17;;;;;;;;;;;;;;;15.09;100.00;91035.16;5032617;28;20344;-68
2022/07/15 05:00:43;;;;;;;;;;;;;;;15.15;97.29;91034.63;5032025;28;19917;-68
2022/07/15 05:03:09;;;;;;;;;;;;;;;15.29;97.01;91032.38;5031969;28;19917;-68
2022/07/15 05:05:34;;;;;;;;;;;;;;;15.39;95.01;91030.38;5032193;28;19917;-68
2022/07/15 05:07:59;;;;;;;;;;;;;;;15.45;94.52;91035.19;5032876;28;19988;-68
2022/07/15 05:10:25;;;;;;;;;;;;;;;15.62;92.65;91036.91;5035880;28;20359;-68
2022/07/15 05:12:50;;;;;;;;;;;;;;;15.81;91.13;91042.47;5035968;28;19920;-69
2022/07/15 05:15:15;;;;;;;;;;;;;;;16.07;89.41;91035.94;5035738;28;19913;-68
2022/07/15 05:17:41;;;;;;;;;;;;;;;16.22;87.83;91040.59;5035888;28;19913;-68
2022/07/15 05:20:06;;;;;;;;;;;;;;;16.37;85.53;91036.41;5035735;28;19913;-68
2022/07/15 05:22:31;;;;;;;;;;;;;;;16.53;88.37;91042.63;5035577;28;19917;-68
2022/07/15 05:24:57;;;;;;;;;;;;;;;16.75;81.63;91030.59;5035302;28;20010;-68
2022/07/15 05:27:22;;;;;;;;;;;;;;;17.01;78.87;91038.97;5035589;28;19913;-68
2022/07/15 05:29:47;;;;;;;;;;;;;;;17.29;76.79;91040.81;5035153;28;19970;-68
2022/07/15 05:32:13;;;;;;;;;;;;;;;17.50;76.32;91035.94;5035460;28;19975;-68
2022/07/15 05:34:38;;;;;;;;;;;;;;;17.71;76.28;91037.63;5035314;28;20011;-67
2022/07/15 05:37:03;;;;;;;;;;;;;;;17.83;78.58;91038.31;5035579;28;19913;-68
2022/07/15 05:39:29;;;;;;;;;;;;;;;18.08;74.64;91040.78;5035187;28;19916;-68
2022/07/15 05:41:54;;;;;;;;;;;;;;;18.31;72.85;91036.31;5035357;28;19917;-69
2022/07/15 05:44:20;;;;;;;;;;;;;;;19.67;70.85;91036.94;5035091;28;19912;-68
2022/07/15 05:46:45;;;;;;;;;;;;;;;23.67;57.00;91031.31;5035398;28;19927;-68
2022/07/15 05:49:10;;;;;;;;;;;;;;;27.32;46.45;91038.81;5035341;28;20366;-69
2022/07/15 05:51:36;;;;;;;;;;;;;;;29.62;41.32;91042.94;5034853;28;20015;-69
2022/07/15 05:54:02;;;;;;;;;;;;;;;31.67;37.75;91033.59;5035474;28;19913;-69
2022/07/15 05:56:28;;;;;;;;;;;;;;;33.04;35.12;91034.50;5035154;28;19920;-66
2022/07/15 05:58:53;;;;;;;;;;;;;;;34.63;32.89;91040.16;5035153;28;19913;-67
2022/07/15 06:01:19;;;;;;;;;;;;;;;36.27;30.55;91036.69;5035012;28;19913;-73
2022/07/15 06:03:44;;;;;;;;;;;;;;;37.42;29.61;91039.09;5035051;28;19917;-68
2022/07/15 06:06:09;;;;;;;;;;;;;;;38.05;29.11;91045.34;5035083;28;19913;-68
2022/07/15 06:08:35;;;;;;;;;;;;;;;37.16;29.16;91043.56;5034726;28;20279;-68
2022/07/15 06:11:00;;;;;;;;;;;;;;;38.72;27.98;91042.94;5034990;28;19917;-68
2022/07/15 06:13:26;;;;;;;;;;;;;;;40.35;26.58;91040.94;5034769;28;20355;-68
2022/07/15 06:15:52;;;;;;;;;;;;;;;39.81;26.29;91049.00;5034827;28;19967;-68
2022/07/15 06:18:17;;;;;;;;;;;;;;;38.06;26.65;91040.56;5034873;28;19913;-68
2022/07/15 06:20:43;;;;;;;;;;;;;;;38.21;27.64;91046.91;5034684;28;19913;-68
2022/07/15 06:23:08;;;;;;;;;;;;;;;38.26;27.48;91042.69;5034368;28;19967;-68
2022/07/15 06:25:33;;;;;;;;;;;;;;;39.27;26.61;91044.25;5035002;28;19913;-68
2022/07/15 06:27:58;;;;;;;;;;;;;;;36.77;28.93;91048.19;5034328;28;19920;-69
2022/07/15 06:30:24;;;;;;;;;;;;;;;36.76;29.34;91038.34;5034371;28;19917;-69
2022/07/15 06:32:49;;;;;;;;;;;;;;;37.92;29.00;91041.31;5034384;28;19920;-69
2022/07/15 06:35:14;;;;;;;;;;;;;;;38.95;28.11;91047.59;5034226;28;20004;-67
2022/07/15 06:37:40;;;;;;;;;;;;;;;37.99;28.21;91035.38;5034660;28;19919;-67
2022/07/15 06:40:06;;;;;;;;;;;;;;;39.66;26.49;91042.75;5034427;28;19913;-68
2022/07/15 06:42:31;;;;;;;;;;;;;;;40.34;25.94;91041.44;5034574;28;19913;-68
2022/07/15 06:44:56;;;;;;;;;;;;;;;41.44;25.29;91042.03;5034068;28;20392;-67
2022/07/15 06:47:22;;;;;;;;;;;;;;;41.99;25.10;91040.75;5034198;28;19963;-68
2022/07/15 06:49:49;;;;;;;;;;;;;;;40.28;26.56;91037.84;5034186;28;19971;-68
2022/07/15 06:52:15;;;;;;;;;;;;;;;41.63;25.71;91043.13;5033769;28;20028;-69
2022/07/15 06:54:40;;;;;;;;;;;;;;;41.72;25.69;91036.59;5034442;28;19963;-68
2022/07/15 06:57:06;;;;;;;;;;;;;;;41.58;25.04;91038.28;5033791;28;19913;-68
2022/07/15 06:59:33;;;;;;;;;;;;;;;40.06;26.54;91032.81;5034014;28;19966;-68
2022/07/15 07:01:58;;;;;;;;;;;;;;;40.10;25.96;91036.91;5033978;28;19966;-68
2022/07/15 07:04:23;;;;;;;;;;;;;;;41.47;25.73;91029.84;5034226;28;19917;-68
2022/07/15 07:06:49;;;;;;;;;;;;;;;41.26;25.00;91041.19;5033897;28;20383;-68
2022/07/15 07:09:14;;;;;;;;;;;;;;;42.61;24.19;91038.81;5034191;28;19921;-68
2022/07/15 07:11:39;;;;;;;;;;;;;;;41.64;23.82;91038.28;5033629;28;19971;-68
2022/07/15 07:14:06;;;;;;;;;;;;;;;41.87;22.91;91037.91;5033998;28;19920;-69
2022/07/15 07:16:31;;;;;;;;;;;;;;;40.56;23.81;91029.75;5033684;28;19913;-69
2022/07/15 07:18:57;;;;;;;;;;;;;;;39.41;25.53;91032.28;5033941;28;20291;-69
2022/07/15 07:21:22;;;;;;;;;;;;;;;41.24;24.00;91032.53;5033251;28;19963;-69
2022/07/15 07:23:47;;;;;;;;;;;;;;;42.50;21.97;91041.66;5033840;28;19917;-69
2022/07/15 07:26:16;;;;;;;;;;;;;;;39.95;24.35;91030.66;5032775;28;19925;-67
2022/07/15 07:28:41;;;;;;;;;;;;;;;38.45;25.54;91041.22;5033432;28;20309;-70
2022/07/15 07:31:08;;;;;;;;;;;;;;;38.54;26.14;91037.59;5032486;28;19913;-69
2022/07/15 07:33:33;;;;;;;;;;;;;;;36.75;27.14;91037.56;5032918;28;20402;-69
2022/07/15 07:35:59;;;;;;;;;;;;;;;38.18;28.32;91045.03;5033584;28;19947;-69
2022/07/15 07:38:24;;;;;;;;;;;;;;;38.57;26.06;91039.41;5033270;28;19992;-68
2022/07/15 07:40:50;;;;;;;;;;;;;;;39.16;25.66;91042.84;5033176;28;20371;-69
2022/07/15 07:43:17;;;;;;;;;;;;;;;38.45;27.31;91040.47;5032898;28;20350;-69
2022/07/15 07:45:42;;;;;;;;;;;;;;;38.02;27.79;91037.94;5032923;28;20050;-69
2022/07/15 07:48:08;;;;;;;;;;;;;;;37.33;28.18;91035.59;5015058;28;19959;-69
2022/07/15 07:50:33;;;;;;;;;;;;;;;37.05;29.42;91037.75;5033048;28;20299;-69
2022/07/15 07:52:59;;;;;;;;;;;;;;;37.53;28.56;91032.97;5032605;28;19913;-68
2022/07/15 07:55:24;;;;;;;;;;;;;;;38.04;28.00;91024.38;5032912;28;20296;-69
2022/07/15 07:57:51;;;;;;;;;;;;;;;36.53;29.01;91014.91;5032787;28;20059;-68
2022/07/15 08:00:17;;;;;;;;;;;;;;;35.38;30.71;91024.81;5032507;28;19913;-68
2022/07/15 08:02:42;;;;;;;;;;;;;;;37.27;28.81;91015.31;5032629;28;20007;-67
2022/07/15 08:05:08;;;;;;;;;;;;;;;38.66;26.99;91014.28;5032509;28;19917;-68
2022/07/15 08:07:35;;;;;;;;;;;;;;;39.47;26.98;91019.97;5032634;28;19913;-67
2022/07/15 08:10:00;;;;;;;;;;;;;;;39.01;25.99;91021.88;5032675;28;19913;-68
2022/07/15 08:12:26;;;;;;;;;;;;;;;39.89;26.68;91015.88;5032224;28;19924;-68
2022/07/15 08:14:54;;;;;;;;;;;;;;;41.98;24.53;91028.00;5032423;28;20349;-68
2022/07/15 08:17:20;;;;;;;;;;;;;;;40.55;24.48;91026.16;5032660;28;19970;-68
2022/07/15 08:19:45;;;;;;;;;;;;;;;40.15;25.29;91024.28;5032955;28;20314;-68
2022/07/15 08:22:10;;;;;;;;;;;;;;;41.43;24.44;91034.91;5032003;28;19917;-68
2022/07/15 08:24:36;;;;;;;;;;;;;;;41.23;24.58;91025.41;5032316;28;20299;-69
2022/07/15 08:27:02;;;;;;;;;;;;;;;41.87;23.33;91023.94;5032575;28;19916;-69
2022/07/15 08:29:27;;;;;;;;;;;;;;;41.38;23.73;91027.28;5032255;28;19914;-68
2022/07/15 08:31:53;;;;;;;;;;;;;;;38.94;27.04;91023.78;5032460;28;19913;-68
2022/07/15 08:34:18;;;;;;;;;;;;;;;41.29;25.25;91020.63;5032477;28;19919;-67
2022/07/15 08:36:43;;;;;;;;;;;;;;;41.37;24.56;91018.13;5014627;28;19963;-67
2022/07/15 08:39:09;;;;;;;;;;;;;;;41.16;24.06;91017.47;5032571;28;19971;-68
2022/07/15 08:41:36;;;;;;;;;;;;;;;39.83;25.64;91017.88;5014523;28;19917;-68
2022/07/15 08:44:01;;;;;;;;;;;;;;;41.97;24.64;91020.88;5034831;28;19916;-68
2022/07/15 08:46:27;;;;;;;;;;;;;;;41.78;23.89;91026.19;5036134;28;19920;-68
2022/07/15 08:48:58;;;;;;;;;;;;;;;40.64;24.66;91016.88;5036295;28;20003;-68
2022/07/15 08:51:24;;;;;;;;;;;;;;;42.49;24.33;91012.91;5036054;28;19913;-69
2022/07/15 08:53:51;;;;;;;;;;;;;;;41.80;23.87;91013.22;5036098;28;20395;-68
2022/07/15 08:56:17;;;;;;;;;;;;;;;41.40;24.15;91013.56;5036023;28;19979;-68
2022/07/15 08:58:42;;;;;;;;;;;;;;;41.12;24.61;91016.94;5036600;28;20322;-68
2022/07/15 09:01:08;;;;;;;;;;;;;;;41.12;24.46;91021.78;5035691;28;19919;-69
2022/07/15 09:03:33;;;;;;;;;;;;;;;42.11;24.00;91022.72;5036168;28;19913;-68
2022/07/15 09:05:58;;;;;;;;;;;;;;;42.04;23.02;91009.22;5035825;28;19970;-69
2022/07/15 09:08:24;;;;;;;;;;;;;;;42.80;22.76;91023.06;5036427;28;19995;-69
2022/07/15 09:10:51;;;;;;;;;;;;;;;41.26;24.19;91010.47;5036029;28;20324;-69
2022/07/15 09:13:22;;;;;;;;;;;;;;;40.91;25.64;91007.19;5035576;28;19979;-69
2022/07/15 09:15:47;;;;;;;;;;;;;;;39.91;25.04;91007.81;5035751;28;20008;-68
2022/07/15 09:18:14;;;;;;;;;;;;;;;39.81;25.15;91010.00;5020803;28;19956;-72
2022/07/15 09:20:40;;;;;;;;;;;;;;;39.95;25.27;91007.59;5015717;28;19917;-70
2022/07/15 09:23:06;;;;;;;;;;;;;;;41.72;24.30;91006.63;5015802;28;20449;-70
2022/07/15 09:25:33;;;;;;;;;;;;;;;42.16;22.78;91008.78;5015379;28;19913;-71
2022/07/15 09:28:01;;;;;;;;;;;;;;;41.95;21.70;91004.63;5015427;28;19914;-68
2022/07/15 09:36:01;;;;;;;;;;;;;;;40.84;24.18;90994.47;5015772;28;20390;-68
2022/07/15 09:38:29;;;;;;;;;;;;;;;40.73;24.30;90996.41;5014416;28;19913;-69
2022/07/15 09:40:54;;;;;;;;;;;;;;;41.02;23.39;91003.69;5014217;28;20433;-69
2022/07/15 09:43:20;;;;;;;;;;;;;;;39.38;25.52;91006.19;4996631;28;19913;-69
2022/07/15 09:45:45;;;;;;;;;;;;;;;39.21;25.74;90999.66;4996750;28;19917;-68
2022/07/15 09:48:13;;;;;;;;;;;;;;;39.75;25.50;90995.22;5014305;28;19914;-68
2022/07/15 09:50:39;;;;;;;;;;;;;;;39.44;25.27;91004.22;5014443;28;19913;-68
2022/07/15 09:53:10;;;;;;;;;;;;;;;39.37;24.41;91001.88;5014242;28;20394;-69
2022/07/15 09:55:36;;;;;;;;;;;;;;;37.43;26.62;90996.22;5013444;28;20387;-69
2022/07/15 09:58:04;;;;;;;;;;;;;;;38.86;26.03;90994.09;5014159;28;19913;-70
2022/07/15 10:00:30;;;;;;;;;;;;;;;40.48;23.80;90990.38;5014202;28;19913;-68
2022/07/15 10:02:55;;;;;;;;;;;;;;;39.01;25.13;90991.28;5014058;28;20020;-68
2022/07/15 10:05:21;;;;;;;;;;;;;;;40.33;24.75;90981.34;5014025;28;19920;-69
2022/07/15 10:07:48;;;;;;;;;;;;;;;41.92;23.90;90980.50;5014130;28;20357;-69
2022/07/15 10:10:13;;;;;;;;;;;;;;;41.91;23.37;90984.56;5013767;28;19926;-68
2022/07/15 10:12:48;;;;;;;;;;;;;;;40.18;25.55;90980.72;5013775;28;19917;-68
2022/07/15 10:15:34;;;;;;;;;;;;;;;39.36;25.99;90971.75;5013894;28;20056;-68
2022/07/15 10:18:19;;;;;;;;;;;;;;;39.07;25.42;90980.97;5013380;28;19913;-69
2022/07/15 10:20:58;;;;;;;;;;;;;;;37.40;28.48;90985.25;5013816;28;19996;-69
2022/07/15 10:23:49;;;;;;;;;;;;;;;40.51;25.43;90981.00;5013645;28;20315;-67
2022/07/15 10:26:23;;;;;;;;;;;;;;;40.93;25.06;90976.75;5013365;28;19914;-70
2022/07/15 10:28:54;;;;;;;;;;;;;;;40.26;25.39;90976.25;5013640;28;19917;-70
2022/07/15 10:31:25;;;;;;;;;;;;;;;40.76;24.33;90979.44;5013509;28;19964;-69
2022/07/15 10:34:02;;;;;;;;;;;;;;;39.68;25.55;90978.97;5013687;28;20079;-69
2022/07/15 10:36:40;;;;;;;;;;;;;;;39.30;25.60;90976.50;5013549;28;19990;-69
2022/07/15 10:39:06;;;;;;;;;;;;;;;40.07;24.70;90973.78;5013513;28;19917;-68
2022/07/15 10:41:50;;;;;;;;;;;;;;;38.28;25.44;90973.50;5012935;28;20518;-68
2022/07/15 10:44:15;;;;;;;;;;;;;;;40.57;24.77;90961.56;5013416;28;19924;-68
2022/07/15 10:46:40;;;;;;;;;;;;;;;37.23;27.33;90961.94;5013296;28;20000;-68
2022/07/15 10:49:06;;;;;;;;;;;;;;;37.92;27.84;90969.84;5013341;28;19913;-68
2022/07/15 10:51:37;;;;;;;;;;;;;;;39.01;25.82;90972.56;5013161;28;19997;-69
2022/07/15 10:54:07;;;;;;;;;;;;;;;37.32;26.27;90961.91;5013282;28;19947;-69
2022/07/15 10:56:34;;;;;;;;;;;;;;;37.96;26.51;90969.66;5013307;28;19920;-69
2022/07/15 10:59:09;;;;;;;;;;;;;;;37.34;26.50;90970.53;5013330;28;19936;-69
2022/07/15 11:01:35;;;;;;;;;;;;;;;38.54;26.14;90974.41;5013230;28;19952;-69
2022/07/15 11:04:12;;;;;;;;;;;;;;;39.23;25.59;90974.88;5012960;28;19952;-69
2022/07/15 11:06:56;;;;;;;;;;;;;;;38.69;25.02;90968.06;5012309;28;19920;-69
2022/07/15 11:09:40;;;;;;;;;;;;;;;38.02;25.61;90967.72;5013117;28;19913;-69
2022/07/15 11:12:05;;;;;;;;;;;;;;;39.99;24.22;90964.34;5012911;28;19918;-69
2022/07/15 11:14:50;;;;;;;;;;;;;;;41.23;24.41;90966.78;5012809;28;19936;-69
2022/07/15 11:17:39;;;;;;;;;;;;;;;39.12;25.45;90971.94;5012993;28;19917;-69
2022/07/15 11:20:11;;;;;;;;;;;;;;;40.52;24.59;90965.03;5004765;28;19924;-69
2022/07/15 11:22:38;;;;;;;;;;;;;;;39.97;24.07;90954.97;5012550;28;20383;-69
2022/07/15 11:25:05;;;;;;;;;;;;;;;40.45;24.58;90959.94;5012852;28;19917;-69
2022/07/15 11:27:30;;;;;;;;;;;;;;;40.18;24.56;90961.97;5012585;28;19920;-68
2022/07/15 11:30:02;;;;;;;;;;;;;;;40.11;24.08;90960.41;5012984;28;19917;-68
2022/07/15 11:32:28;;;;;;;;;;;;;;;39.09;24.62;90961.78;5012570;28;19913;-69
2022/07/15 11:34:55;;;;;;;;;;;;;;;39.03;25.83;90952.59;5012730;28;19925;-69
2022/07/15 11:37:27;;;;;;;;;;;;;;;39.15;24.68;90959.88;5012583;28;19914;-69
2022/07/15 11:40:05;;;;;;;;;;;;;;;37.07;24.66;90958.38;5012801;28;19917;-68
2022/07/15 11:45:30;;;;;;;;;;;;;;;35.62;28.04;90955.75;5012832;28;19923;-67
2022/07/15 11:47:55;;;;;;;;;;;;;;;34.66;27.09;90948.81;5012413;28;19917;-69
2022/07/15 11:50:21;;;;;;;;;;;;;;;35.03;27.75;90944.13;5012410;28;19913;-69
2022/07/15 11:52:47;;;;;;;;;;;;;;;36.81;26.17;90946.25;5012465;28;19913;-69
2022/07/15 11:55:12;;;;;;;;;;;;;;;39.41;24.96;90949.53;5012326;28;19921;-69
2022/07/15 11:57:43;;;;;;;;;;;;;;;38.46;24.53;90950.25;5012278;28;19917;-69
2022/07/15 12:00:08;;;;;;;;;;;;;;;39.96;23.71;90945.84;5012193;28;20318;-69
2022/07/15 12:02:34;;;;;;;;;;;;;;;40.48;22.73;90942.22;4994819;28;20384;-69
2022/07/15 12:05:04;;;;;;;;;;;;;;;41.27;21.67;90947.78;5012222;28;20007;-69
2022/07/15 12:07:46;;;;;;;;;;;;;;;41.93;20.91;90944.91;5012137;28;19913;-70
2022/07/15 12:10:12;;;;;;;;;;;;;;;37.84;23.20;90940.94;5012339;28;19920;-68
2022/07/15 12:12:41;;;;;;;;;;;;;;;36.22;24.93;90924.50;5012035;28;20008;-68
2022/07/15 12:15:07;;;;;;;;;;;;;;;35.66;26.04;90934.22;5012046;28;19920;-68
2022/07/15 12:17:33;;;;;;;;;;;;;;;36.58;25.04;90937.41;4994453;28;19917;-69
2022/07/15 12:20:02;;;;;;;;;;;;;;;38.01;23.81;90938.41;5011981;28;19918;-69
2022/07/15 12:22:27;;;;;;;;;;;;;;;37.29;24.66;90929.56;5011549;28;19917;-69
2022/07/15 12:24:52;;;;;;;;;;;;;;;37.23;25.60;90934.97;5011901;28;19975;-69
2022/07/15 12:27:19;;;;;;;;;;;;;;;37.76;24.54;90940.56;5011946;28;20377;-69
2022/07/15 12:29:58;;;;;;;;;;;;;;;37.31;25.87;90932.63;5012060;28;19921;-68
2022/07/15 12:32:24;;;;;;;;;;;;;;;37.31;26.06;90925.06;4990037;28;19918;-68
2022/07/15 12:34:58;;;;;;;;;;;;;;;37.53;24.30;90927.47;5011853;28;19913;-67
2022/07/15 12:37:24;;;;;;;;;;;;;;;37.68;25.22;90933.03;5011837;28;20502;-67
2022/07/15 12:39:57;;;;;;;;;;;;;;;37.09;25.38;90925.41;5012659;28;19913;-68
2022/07/15 12:42:22;;;;;;;;;;;;;;;37.33;24.16;90935.69;5011699;28;20000;-67
2022/07/15 12:45:05;;;;;;;;;;;;;;;37.30;25.48;90928.31;5011808;28;19952;-68
2022/07/15 12:47:30;;;;;;;;;;;;;;;35.87;27.82;90937.28;4994078;28;19955;-66
2022/07/15 12:49:58;;;;;;;;;;;;;;;36.39;27.86;90933.22;5011614;28;19956;-67
2022/07/15 12:52:32;;;;;;;;;;;;;;;36.73;28.20;90934.69;5011487;28;19952;-67
2022/07/15 12:54:58;;;;;;;;;;;;;;;36.81;28.46;90932.38;5011680;28;19913;-68
2022/07/15 12:57:29;;;;;;;;;;;;;;;35.14;29.84;90932.56;5008488;28;19925;-67